createdAt,value
2022-11-01T00:00:09.044Z,0
2022-11-01T00:01:09.174Z,0
2022-11-01T00:02:09.547Z,0
2022-11-01T00:03:09.072Z,0
2022-11-01T00:04:09.142Z,0
2022-11-01T00:05:09.046Z,0
2022-11-01T00:06:13.683Z,0
2022-11-01T00:07:09.078Z,0
2022-11-01T00:08:09.834Z,0
2022-11-01T00:09:09.081Z,0
2022-11-01T00:10:09.442Z,0
2022-11-01T00:11:12.171Z,0
2022-11-01T00:12:09.075Z,0
2022-11-01T00:13:09.631Z,0
2022-11-01T00:14:09.072Z,0
2022-11-01T00:15:09.072Z,0
2022-11-01T00:16:09.082Z,0
2022-11-01T00:17:12.188Z,0
2022-11-01T00:18:09.069Z,0
2022-11-01T00:19:09.063Z,0
2022-11-01T00:20:09.148Z,0
2022-11-01T00:21:09.085Z,0
2022-11-01T00:22:11.966Z,0
2022-11-01T00:23:09.983Z,0
2022-11-01T00:24:09.083Z,0
2022-11-01T00:25:09.082Z,0
2022-11-01T00:26:09.108Z,0
2022-11-01T00:27:09.087Z,0
2022-11-01T00:28:12.715Z,0
2022-11-01T00:29:09.169Z,0
2022-11-01T00:30:09.119Z,0
2022-11-01T00:31:15.190Z,0
2022-11-01T00:32:09.091Z,0
2022-11-01T00:33:21.688Z,0
2022-11-01T00:34:09.148Z,0
2022-11-01T00:35:09.110Z,0
2022-11-01T00:36:09.168Z,0
2022-11-01T00:37:09.139Z,0
2022-11-01T00:38:09.528Z,0
2022-11-01T00:39:12.229Z,0
2022-11-01T00:40:09.112Z,0
2022-11-01T00:41:09.151Z,0
2022-11-01T00:42:09.136Z,0
2022-11-01T00:43:09.255Z,0
2022-11-01T00:44:12.175Z,0
2022-11-01T00:45:09.176Z,0
2022-11-01T00:46:09.124Z,0
2022-11-01T00:47:13.070Z,0
2022-11-01T00:48:09.599Z,0
2022-11-01T00:49:09.325Z,0
2022-11-01T00:50:12.266Z,0
2022-11-01T00:51:09.125Z,0
2022-11-01T00:52:09.222Z,0
2022-11-01T00:53:09.138Z,0
2022-11-01T00:54:09.206Z,0
2022-11-01T00:55:12.271Z,0
2022-11-01T00:56:09.133Z,0
2022-11-01T00:57:09.136Z,0
2022-11-01T00:58:09.962Z,0
2022-11-01T00:59:09.350Z,0
2022-11-01T01:00:09.188Z,0
2022-11-01T01:01:12.495Z,0
2022-11-01T01:02:10.083Z,0
2022-11-01T01:03:09.658Z,0
2022-11-01T01:04:09.182Z,0
2022-11-01T01:05:09.155Z,0
2022-11-01T01:06:12.228Z,0
2022-11-01T01:07:09.156Z,0
2022-11-01T01:08:09.245Z,0
2022-11-01T01:09:09.179Z,0
2022-11-01T01:10:09.159Z,0
2022-11-01T01:11:09.168Z,0
2022-11-01T01:12:08.844Z,0
2022-11-01T01:13:10.056Z,0
2022-11-01T01:14:09.184Z,0
2022-11-01T01:15:09.203Z,0
2022-11-01T01:16:09.185Z,0
2022-11-01T01:17:18.223Z,0
2022-11-01T01:18:10.010Z,0
2022-11-01T01:19:09.193Z,0
2022-11-01T01:20:09.180Z,0
2022-11-01T01:21:09.217Z,0
2022-11-01T01:22:09.168Z,0
2022-11-01T01:23:09.196Z,0
2022-11-01T01:24:09.123Z,0
2022-11-01T01:25:09.203Z,0
2022-11-01T01:26:09.189Z,0
2022-11-01T01:27:09.193Z,0
2022-11-01T01:28:13.747Z,0
2022-11-01T01:29:09.212Z,0
2022-11-01T01:30:09.195Z,0
2022-11-01T01:31:18.297Z,0
2022-11-01T01:32:09.196Z,0
2022-11-01T01:33:09.517Z,0
2022-11-01T01:34:09.214Z,0
2022-11-01T01:35:09.200Z,0
2022-11-01T01:36:09.201Z,0
2022-11-01T01:37:09.229Z,0
2022-11-01T01:38:10.190Z,0
2022-11-01T01:39:10.537Z,0
2022-11-01T01:40:09.285Z,0
2022-11-01T01:41:09.207Z,0
2022-11-01T01:42:09.220Z,0
2022-11-01T01:43:09.255Z,0
2022-11-01T01:44:10.403Z,0
2022-11-01T01:45:09.225Z,0
2022-11-01T01:46:09.219Z,0
2022-11-01T01:47:09.221Z,0
2022-11-01T01:48:09.970Z,0
2022-11-01T01:49:09.277Z,0
2022-11-01T01:50:12.264Z,0
2022-11-01T01:51:09.217Z,0
2022-11-01T01:52:09.221Z,0
2022-11-01T01:53:10.242Z,0
2022-11-01T01:54:09.258Z,0
2022-11-01T01:55:12.136Z,0
2022-11-01T01:56:09.239Z,0
2022-11-01T01:57:09.244Z,0
2022-11-01T01:58:09.225Z,0
2022-11-01T01:59:09.423Z,0
2022-11-01T02:00:11.981Z,0
2022-11-01T02:01:09.731Z,0
2022-11-01T02:02:09.694Z,0
2022-11-01T02:03:09.915Z,0
2022-11-01T02:04:10.321Z,0
2022-11-01T02:05:09.329Z,0
2022-11-01T02:06:09.377Z,0
2022-11-01T02:07:09.255Z,0
2022-11-01T02:08:09.788Z,0
2022-11-01T02:09:09.277Z,0
2022-11-01T02:10:09.484Z,0
2022-11-01T02:11:09.319Z,0
2022-11-01T02:12:09.256Z,0
2022-11-01T02:13:09.253Z,0
2022-11-01T02:14:09.282Z,0
2022-11-01T02:15:09.299Z,0
2022-11-01T02:16:12.332Z,0
2022-11-01T02:17:18.158Z,0
2022-11-01T02:18:09.820Z,0
2022-11-01T02:19:09.293Z,0
2022-11-01T02:20:09.291Z,0
2022-11-01T02:21:09.305Z,0
2022-11-01T02:22:12.381Z,0
2022-11-01T02:23:09.971Z,0
2022-11-01T02:24:09.312Z,0
2022-11-01T02:25:09.284Z,0
2022-11-01T02:26:09.292Z,0
2022-11-01T02:27:09.354Z,0
2022-11-01T02:28:09.292Z,0
2022-11-01T02:29:12.698Z,0
2022-11-01T02:30:09.295Z,0
2022-11-01T02:31:09.298Z,0
2022-11-01T02:32:09.316Z,0
2022-11-01T02:33:12.857Z,0
2022-11-01T02:34:09.330Z,0
2022-11-01T02:35:09.299Z,0
2022-11-01T02:36:09.308Z,0
2022-11-01T02:37:09.336Z,0
2022-11-01T02:38:12.366Z,0
2022-11-01T02:39:09.582Z,0
2022-11-01T02:40:09.305Z,0
2022-11-01T02:41:09.319Z,0
2022-11-01T02:42:09.320Z,0
2022-11-01T02:43:10.191Z,0
2022-11-01T02:44:12.252Z,0
2022-11-01T02:45:09.311Z,0
2022-11-01T02:46:09.330Z,0
2022-11-01T02:47:09.351Z,0
2022-11-01T02:48:09.328Z,0
2022-11-01T02:49:12.107Z,0
2022-11-01T02:50:09.344Z,0
2022-11-01T02:51:09.324Z,0
2022-11-01T02:52:09.330Z,0
2022-11-01T02:53:09.741Z,0
2022-11-01T02:54:09.327Z,0
2022-11-01T02:55:12.492Z,0
2022-11-01T02:56:09.325Z,0
2022-11-01T02:57:09.334Z,0
2022-11-01T02:58:10.235Z,0
2022-11-01T02:59:09.423Z,0
2022-11-01T03:00:12.451Z,0
2022-11-01T03:01:09.848Z,0
2022-11-01T03:02:09.801Z,0
2022-11-01T03:03:09.342Z,0
2022-11-01T03:04:09.502Z,0
2022-11-01T03:05:09.382Z,0
2022-11-01T03:06:12.432Z,0
2022-11-01T03:07:09.350Z,0
2022-11-01T03:08:10.186Z,0
2022-11-01T03:09:09.393Z,0
2022-11-01T03:10:09.394Z,0
2022-11-01T03:11:12.443Z,0
2022-11-01T03:12:09.363Z,0
2022-11-01T03:13:10.166Z,0
2022-11-01T03:14:09.352Z,0
2022-11-01T03:15:09.512Z,0
2022-11-01T03:16:09.365Z,0
2022-11-01T03:17:12.399Z,0
2022-11-01T03:18:09.381Z,0
2022-11-01T03:19:12.252Z,0
2022-11-01T03:20:09.407Z,0
2022-11-01T03:21:09.390Z,0
2022-11-01T03:22:12.394Z,0
2022-11-01T03:23:10.207Z,0
2022-11-01T03:24:09.385Z,0
2022-11-01T03:25:09.415Z,0
2022-11-01T03:26:09.500Z,0
2022-11-01T03:27:09.481Z,0
2022-11-01T03:28:09.423Z,0
2022-11-01T03:29:09.399Z,0
2022-11-01T03:30:09.604Z,0
2022-11-01T03:31:09.494Z,0
2022-11-01T03:32:09.480Z,0
2022-11-01T03:33:11.125Z,0
2022-11-01T03:34:09.396Z,0
2022-11-01T03:35:09.439Z,0
2022-11-01T03:36:16.799Z,0
2022-11-01T03:37:09.602Z,0
2022-11-01T03:38:09.411Z,0
2022-11-01T03:39:09.410Z,0
2022-11-01T03:40:09.425Z,0
2022-11-01T03:41:09.432Z,0
2022-11-01T03:42:09.410Z,0
2022-11-01T03:43:10.083Z,0
2022-11-01T03:44:12.544Z,0
2022-11-01T03:45:09.520Z,0
2022-11-01T03:46:09.412Z,0
2022-11-01T03:47:09.501Z,0
2022-11-01T03:48:10.287Z,0
2022-11-01T03:49:09.625Z,0
2022-11-01T03:50:09.449Z,0
2022-11-01T03:51:09.429Z,0
2022-11-01T03:52:09.422Z,0
2022-11-01T03:53:09.444Z,0
2022-11-01T03:54:09.508Z,0
2022-11-01T03:55:13.309Z,0
2022-11-01T03:56:09.724Z,0
2022-11-01T03:57:09.778Z,0
2022-11-01T03:58:10.374Z,0
2022-11-01T03:59:09.448Z,0
2022-11-01T04:00:09.479Z,0
2022-11-01T04:01:09.848Z,0
2022-11-01T04:03:10.617Z,0
2022-11-01T04:04:09.444Z,0
2022-11-01T04:05:09.469Z,0
2022-11-01T04:06:12.484Z,0
2022-11-01T04:07:10.528Z,0
2022-11-01T04:08:09.470Z,0
2022-11-01T04:09:09.495Z,0
2022-11-01T04:10:09.502Z,0
2022-11-01T04:11:12.492Z,0
2022-11-01T04:12:09.457Z,0
2022-11-01T04:13:10.461Z,0
2022-11-01T04:14:09.468Z,0
2022-11-01T04:15:09.505Z,0
2022-11-01T04:16:09.478Z,0
2022-11-01T04:17:12.711Z,0
2022-11-01T04:18:09.472Z,0
2022-11-01T04:19:09.544Z,0
2022-11-01T04:20:09.550Z,0
2022-11-01T04:21:09.514Z,0
2022-11-01T04:22:12.248Z,0
2022-11-01T04:23:10.502Z,0
2022-11-01T04:24:09.479Z,0
2022-11-01T04:25:09.532Z,0
2022-11-01T04:26:09.597Z,0
2022-11-01T04:27:09.496Z,0
2022-11-01T04:28:09.477Z,0
2022-11-01T04:29:09.513Z,0
2022-11-01T04:30:09.505Z,0
2022-11-01T04:31:09.486Z,0
2022-11-01T04:32:09.487Z,0
2022-11-01T04:33:10.153Z,0
2022-11-01T04:34:09.512Z,0
2022-11-01T04:35:09.795Z,0
2022-11-01T04:36:09.502Z,0
2022-11-01T04:37:09.633Z,0
2022-11-01T04:38:10.804Z,0
2022-11-01T04:39:12.504Z,0
2022-11-01T04:40:09.525Z,0
2022-11-01T04:41:09.509Z,0
2022-11-01T04:42:09.501Z,0
2022-11-01T04:43:09.518Z,0
2022-11-01T04:44:09.510Z,0
2022-11-01T04:45:09.535Z,0
2022-11-01T04:46:09.521Z,0
2022-11-01T04:47:09.518Z,0
2022-11-01T04:48:10.549Z,0
2022-11-01T04:49:12.512Z,0
2022-11-01T04:50:09.550Z,0
2022-11-01T04:51:09.602Z,0
2022-11-01T04:52:09.523Z,0
2022-11-01T04:53:10.396Z,0
2022-11-01T04:54:09.537Z,0
2022-11-01T04:55:09.579Z,0
2022-11-01T04:56:09.532Z,0
2022-11-01T04:57:09.525Z,0
2022-11-01T04:58:15.532Z,0
2022-11-01T04:59:09.527Z,0
2022-11-01T05:00:12.977Z,0
2022-11-01T05:01:10.157Z,0
2022-11-01T05:02:10.001Z,0
2022-11-01T05:03:10.939Z,0
2022-11-01T05:04:09.549Z,0
2022-11-01T05:05:12.743Z,0
2022-11-01T05:06:12.758Z,0
2022-11-01T05:07:09.547Z,0
2022-11-01T05:08:09.892Z,0
2022-11-01T05:09:09.562Z,0
2022-11-01T05:10:09.613Z,0
2022-11-01T05:11:12.430Z,0
2022-11-01T05:12:09.554Z,0
2022-11-01T05:13:10.548Z,0
2022-11-01T05:14:09.568Z,0
2022-11-01T05:15:09.572Z,0
2022-11-01T05:16:28.038Z,0
2022-11-01T05:17:09.560Z,0
2022-11-01T05:18:09.985Z,0
2022-11-01T05:19:09.570Z,0
2022-11-01T05:20:09.570Z,0
2022-11-01T05:21:09.607Z,0
2022-11-01T05:22:12.442Z,0
2022-11-01T05:23:10.643Z,0
2022-11-01T05:24:09.572Z,0
2022-11-01T05:25:09.587Z,0
2022-11-01T05:26:09.602Z,0
2022-11-01T05:27:12.332Z,0
2022-11-01T05:28:10.083Z,0
2022-11-01T05:29:36.035Z,0
2022-11-01T05:30:09.595Z,0
2022-11-01T05:31:09.657Z,0
2022-11-01T05:32:09.703Z,0
2022-11-01T05:33:12.660Z,0
2022-11-01T05:34:09.585Z,0
2022-11-01T05:35:09.590Z,0
2022-11-01T05:36:09.644Z,0
2022-11-01T05:37:09.599Z,0
2022-11-01T05:38:18.492Z,0
2022-11-01T05:39:09.598Z,0
2022-11-01T05:40:09.623Z,0
2022-11-01T05:41:09.953Z,0
2022-11-01T05:42:10.071Z,0
2022-11-01T05:43:10.550Z,0
2022-11-01T05:44:12.697Z,0
2022-11-01T05:45:09.598Z,0
2022-11-01T05:46:09.655Z,0
2022-11-01T05:47:11.143Z,0
2022-11-01T05:48:09.666Z,0
2022-11-01T05:49:10.722Z,4
2022-11-01T05:50:09.621Z,0
2022-11-01T05:51:09.639Z,0
2022-11-01T05:52:09.610Z,0
2022-11-01T05:53:10.496Z,0
2022-11-01T05:54:09.694Z,4
2022-11-01T05:55:09.625Z,4
2022-11-01T05:56:09.663Z,0
2022-11-01T05:57:09.628Z,0
2022-11-01T05:58:09.653Z,4
2022-11-01T05:59:09.640Z,4
2022-11-01T06:00:12.706Z,4
2022-11-01T06:01:09.777Z,4
2022-11-01T06:02:10.156Z,4
2022-11-01T06:03:10.819Z,4
2022-11-01T06:04:09.862Z,4
2022-11-01T06:05:10.287Z,8
2022-11-01T06:06:09.674Z,4
2022-11-01T06:07:09.635Z,4
2022-11-01T06:08:09.686Z,8
2022-11-01T06:09:09.820Z,8
2022-11-01T06:10:09.714Z,8
2022-11-01T06:11:13.277Z,8
2022-11-01T06:12:09.682Z,8
2022-11-01T06:13:10.605Z,12
2022-11-01T06:14:09.709Z,12
2022-11-01T06:15:09.660Z,16
2022-11-01T06:16:09.674Z,12
2022-11-01T06:17:09.671Z,16
2022-11-01T06:18:10.750Z,16
2022-11-01T06:19:09.721Z,20
2022-11-01T06:20:09.715Z,16
2022-11-01T06:21:09.692Z,20
2022-11-01T06:22:12.445Z,16
2022-11-01T06:23:09.670Z,20
2022-11-01T06:24:09.671Z,20
2022-11-01T06:25:09.672Z,20
2022-11-01T06:26:09.779Z,20
2022-11-01T06:27:15.184Z,20
2022-11-01T06:28:10.211Z,20
2022-11-01T06:29:09.687Z,24
2022-11-01T06:30:09.669Z,20
2022-11-01T06:31:09.800Z,20
2022-11-01T06:32:09.682Z,20
2022-11-01T06:33:13.437Z,24
2022-11-01T06:34:09.690Z,24
2022-11-01T06:35:09.683Z,24
2022-11-01T06:36:09.752Z,24
2022-11-01T06:37:09.691Z,28
2022-11-01T06:38:09.854Z,28
2022-11-01T06:39:12.492Z,32
2022-11-01T06:40:09.702Z,32
2022-11-01T06:41:09.726Z,32
2022-11-01T06:42:09.825Z,36
2022-11-01T06:43:12.735Z,40
2022-11-01T06:44:12.791Z,40
2022-11-01T06:45:09.715Z,40
2022-11-01T06:46:09.740Z,44
2022-11-01T06:47:09.721Z,44
2022-11-01T06:48:10.685Z,44
2022-11-01T06:49:19.160Z,40
2022-11-01T06:50:09.716Z,40
2022-11-01T06:51:09.745Z,40
2022-11-01T06:52:09.757Z,44
2022-11-01T06:53:09.837Z,40
2022-11-01T06:54:09.723Z,44
2022-11-01T06:55:09.729Z,44
2022-11-01T06:56:09.751Z,44
2022-11-01T06:57:09.732Z,44
2022-11-01T06:58:10.743Z,44
2022-11-01T06:59:09.762Z,52
2022-11-01T07:00:09.835Z,52
2022-11-01T07:01:10.276Z,48
2022-11-01T07:02:19.366Z,52
2022-11-01T07:03:09.733Z,48
2022-11-01T07:05:09.748Z,44
2022-11-01T07:06:09.773Z,48
2022-11-01T07:07:09.573Z,56
2022-11-01T07:08:10.686Z,52
2022-11-01T07:09:09.740Z,52
2022-11-01T07:10:09.730Z,56
2022-11-01T07:11:09.773Z,60
2022-11-01T07:12:09.765Z,60
2022-11-01T07:13:09.743Z,60
2022-11-01T07:14:09.828Z,64
2022-11-01T07:15:09.578Z,64
2022-11-01T07:16:13.057Z,64
2022-11-01T07:17:09.761Z,68
2022-11-01T07:18:10.889Z,72
2022-11-01T07:19:09.754Z,68
2022-11-01T07:20:09.808Z,72
2022-11-01T07:21:09.775Z,72
2022-11-01T07:22:09.753Z,76
2022-11-01T07:23:10.741Z,76
2022-11-01T07:24:09.798Z,76
2022-11-01T07:25:09.607Z,80
2022-11-01T07:26:09.614Z,84
2022-11-01T07:27:15.312Z,88
2022-11-01T07:28:09.774Z,96
2022-11-01T07:29:09.779Z,104
2022-11-01T07:30:09.844Z,120
2022-11-01T07:31:09.770Z,140
2022-11-01T07:32:11.653Z,188
2022-11-01T07:33:10.776Z,256
2022-11-01T07:34:09.781Z,220
2022-11-01T07:35:09.787Z,232
2022-11-01T07:36:09.801Z,276
2022-11-01T07:37:09.846Z,200
2022-11-01T07:38:18.970Z,176
2022-11-01T07:39:09.835Z,164
2022-11-01T07:40:09.812Z,136
2022-11-01T07:41:09.790Z,128
2022-11-01T07:42:09.799Z,128
2022-11-01T07:43:13.177Z,132
2022-11-01T07:44:10.111Z,140
2022-11-01T07:45:15.539Z,144
2022-11-01T07:46:09.840Z,152
2022-11-01T07:47:09.861Z,160
2022-11-01T07:48:10.715Z,168
2022-11-01T07:49:12.597Z,180
2022-11-01T07:54:13.087Z,200
2022-11-01T07:55:09.998Z,204
2022-11-01T07:59:13.670Z,244
2022-11-01T08:00:12.867Z,292
2022-11-01T08:01:10.259Z,392
2022-11-01T08:02:14.374Z,340
2022-11-01T08:03:10.874Z,324
2022-11-01T08:04:09.882Z,248
2022-11-01T08:05:12.712Z,248
2022-11-01T08:06:12.035Z,248
2022-11-01T08:07:10.912Z,252
2022-11-01T08:08:10.818Z,256
2022-11-01T08:09:09.877Z,264
2022-11-01T08:10:09.837Z,280
2022-11-01T08:11:12.902Z,288
2022-11-01T08:12:09.685Z,304
2022-11-01T08:13:09.861Z,304
2022-11-01T08:14:16.855Z,308
2022-11-01T08:15:09.870Z,304
2022-11-01T08:16:10.956Z,304
2022-11-01T08:17:09.921Z,304
2022-11-01T08:18:11.019Z,308
2022-11-01T08:19:09.875Z,312
2022-11-01T08:20:09.949Z,320
2022-11-01T08:21:09.859Z,324
2022-11-01T08:22:09.911Z,312
2022-11-01T08:23:10.896Z,300
2022-11-01T08:24:09.897Z,296
2022-11-01T08:25:09.896Z,292
2022-11-01T08:26:09.869Z,288
2022-11-01T08:27:12.682Z,276
2022-11-01T08:28:09.930Z,264
2022-11-01T08:29:10.111Z,252
2022-11-01T08:30:09.875Z,244
2022-11-01T08:31:09.911Z,232
2022-11-01T08:32:09.876Z,224
2022-11-01T08:33:14.014Z,220
2022-11-01T08:34:13.070Z,224
2022-11-01T08:35:09.888Z,224
2022-11-01T08:36:10.015Z,228
2022-11-01T08:37:09.877Z,236
2022-11-01T08:38:12.720Z,240
2022-11-01T08:40:09.968Z,256
2022-11-01T08:41:09.898Z,264
2022-11-01T08:42:09.890Z,248
2022-11-01T08:43:10.932Z,244
2022-11-01T08:44:09.935Z,232
2022-11-01T08:45:09.903Z,236
2022-11-01T08:46:09.902Z,240
2022-11-01T08:47:09.929Z,248
2022-11-01T08:48:09.965Z,260
2022-11-01T08:49:13.064Z,268
2022-11-01T08:50:15.507Z,276
2022-11-01T08:51:10.015Z,292
2022-11-01T08:52:09.910Z,312
2022-11-01T08:53:10.293Z,436
2022-11-01T08:54:09.925Z,324
2022-11-01T08:55:09.944Z,312
2022-11-01T08:56:09.933Z,308
2022-11-01T08:57:09.915Z,316
2022-11-01T08:58:10.841Z,324
2022-11-01T08:59:10.283Z,328
2022-11-01T09:00:12.705Z,328
2022-11-01T09:01:10.284Z,328
2022-11-01T09:02:10.612Z,312
2022-11-01T09:03:09.970Z,300
2022-11-01T09:04:09.922Z,288
2022-11-01T09:05:10.066Z,300
2022-11-01T09:06:09.948Z,372
2022-11-01T09:07:09.938Z,460
2022-11-01T09:08:11.024Z,388
2022-11-01T09:09:09.933Z,324
2022-11-01T09:10:09.973Z,404
2022-11-01T09:11:12.850Z,428
2022-11-01T09:12:15.037Z,536
2022-11-01T09:13:10.919Z,740
2022-11-01T09:14:09.964Z,724
2022-11-01T09:15:09.994Z,724
2022-11-01T09:16:13.360Z,696
2022-11-01T09:17:09.986Z,704
2022-11-01T09:18:09.974Z,764
2022-11-01T09:19:12.759Z,764
2022-11-01T09:20:10.044Z,916
2022-11-01T09:21:10.029Z,944
2022-11-01T09:22:10.041Z,964
2022-11-01T09:23:10.930Z,904
2022-11-01T09:24:09.954Z,908
2022-11-01T09:25:10.008Z,816
2022-11-01T09:26:09.964Z,732
2022-11-01T09:27:09.969Z,664
2022-11-01T09:28:09.986Z,660
2022-11-01T09:29:09.983Z,636
2022-11-01T09:30:10.021Z,580
2022-11-01T09:31:27.328Z,584
2022-11-01T09:32:09.987Z,588
2022-11-01T09:33:10.547Z,628
2022-11-01T09:34:09.999Z,576
2022-11-01T09:35:11.082Z,460
2022-11-01T09:36:09.999Z,424
2022-11-01T09:37:10.327Z,396
2022-11-01T09:38:10.057Z,356
2022-11-01T09:39:09.999Z,376
2022-11-01T09:40:10.012Z,368
2022-11-01T09:41:10.009Z,352
2022-11-01T09:42:10.010Z,328
2022-11-01T09:43:14.230Z,308
2022-11-01T09:44:10.031Z,308
2022-11-01T09:45:10.025Z,308
2022-11-01T09:46:10.073Z,316
2022-11-01T09:47:10.028Z,320
2022-11-01T09:48:10.722Z,328
2022-11-01T09:49:10.010Z,336
2022-11-01T09:50:10.038Z,344
2022-11-01T09:51:09.892Z,356
2022-11-01T09:52:10.008Z,364
2022-11-01T09:53:10.070Z,384
2022-11-01T09:54:12.963Z,404
2022-11-01T09:55:10.052Z,500
2022-11-01T09:56:10.030Z,420
2022-11-01T09:57:10.021Z,432
2022-11-01T09:58:10.671Z,408
2022-11-01T09:59:11.150Z,428
2022-11-01T10:00:10.067Z,592
2022-11-01T10:01:10.541Z,652
2022-11-01T10:02:16.554Z,484
2022-11-01T10:04:19.230Z,848
2022-11-01T10:05:18.577Z,532
2022-11-01T10:06:10.085Z,416
2022-11-01T10:07:10.092Z,396
2022-11-01T10:08:11.571Z,360
2022-11-01T10:09:10.072Z,328
2022-11-01T10:10:11.774Z,304
2022-11-01T10:11:10.961Z,304
2022-11-01T10:12:10.061Z,284
2022-11-01T10:13:10.054Z,272
2022-11-01T10:14:10.053Z,268
2022-11-01T10:15:10.464Z,272
2022-11-01T10:16:13.087Z,268
2022-11-01T10:17:10.069Z,280
2022-11-01T10:18:11.074Z,288
2022-11-01T10:19:10.061Z,284
2022-11-01T10:20:10.354Z,288
2022-11-01T10:21:13.036Z,288
2022-11-01T10:22:10.091Z,284
2022-11-01T10:23:10.957Z,276
2022-11-01T10:24:10.152Z,272
2022-11-01T10:25:10.216Z,272
2022-11-01T10:26:10.144Z,268
2022-11-01T10:27:12.927Z,260
2022-11-01T10:28:10.082Z,260
2022-11-01T10:29:10.081Z,264
2022-11-01T10:30:11.149Z,264
2022-11-01T10:31:10.074Z,264
2022-11-01T10:32:12.863Z,268
2022-11-01T10:33:10.817Z,268
2022-11-01T10:34:10.095Z,272
2022-11-01T10:35:10.112Z,280
2022-11-01T10:36:10.102Z,284
2022-11-01T10:37:10.110Z,292
2022-11-01T10:40:14.661Z,308
2022-11-01T10:41:04.783Z,284
2022-11-01T10:42:04.795Z,288
2022-11-01T10:43:07.902Z,304
2022-11-01T10:44:04.792Z,368
2022-11-01T10:45:04.782Z,412
2022-11-01T10:46:04.817Z,508
2022-11-01T10:47:04.780Z,512
2022-11-01T10:48:08.096Z,564
2022-11-01T10:49:04.787Z,520
2022-11-01T10:50:12.902Z,784
2022-11-01T10:51:04.835Z,792
2022-11-01T10:52:04.848Z,640
2022-11-01T10:53:05.010Z,516
2022-11-01T10:54:07.893Z,648
2022-11-01T10:55:04.813Z,520
2022-11-01T10:56:04.909Z,624
2022-11-01T10:57:04.838Z,668
2022-11-01T10:58:06.131Z,748
2022-11-01T10:59:07.940Z,716
2022-11-01T11:00:04.826Z,796
2022-11-01T11:01:05.363Z,764
2022-11-01T11:02:05.648Z,728
2022-11-01T11:03:05.022Z,736
2022-11-01T11:04:04.827Z,700
2022-11-01T11:05:07.834Z,700
2022-11-01T11:06:04.858Z,680
2022-11-01T11:07:05.895Z,676
2022-11-01T11:08:06.348Z,668
2022-11-01T11:09:04.858Z,656
2022-11-01T11:10:08.556Z,636
2022-11-01T11:11:04.888Z,616
2022-11-01T11:12:04.916Z,564
2022-11-01T11:13:06.455Z,520
2022-11-01T11:14:04.901Z,560
2022-11-01T11:15:04.880Z,548
2022-11-01T11:16:05.006Z,536
2022-11-01T11:17:04.897Z,516
2022-11-01T11:18:04.879Z,516
2022-11-01T11:19:04.869Z,516
2022-11-01T11:20:04.861Z,512
2022-11-01T11:21:08.876Z,520
2022-11-01T11:22:04.877Z,512
2022-11-01T11:23:06.334Z,504
2022-11-01T11:24:04.918Z,500
2022-11-01T11:25:04.904Z,492
2022-11-01T11:26:05.187Z,480
2022-11-01T11:27:04.871Z,492
2022-11-01T11:28:06.323Z,480
2022-11-01T11:29:04.889Z,504
2022-11-01T11:30:05.060Z,504
2022-11-01T11:31:04.897Z,504
2022-11-01T11:32:07.985Z,500
2022-11-01T11:33:04.914Z,484
2022-11-01T11:34:04.913Z,484
2022-11-01T11:35:04.930Z,492
2022-11-01T11:36:04.897Z,488
2022-11-01T11:37:04.944Z,484
2022-11-01T11:38:06.655Z,480
2022-11-01T11:39:05.057Z,460
2022-11-01T11:40:04.880Z,452
2022-11-01T11:41:04.928Z,448
2022-11-01T11:42:04.888Z,440
2022-11-01T11:43:06.308Z,416
2022-11-01T11:44:04.971Z,360
2022-11-01T11:45:05.225Z,312
2022-11-01T11:46:04.962Z,280
2022-11-01T11:47:04.918Z,260
2022-11-01T11:48:09.091Z,260
2022-11-01T11:49:04.895Z,252
2022-11-01T11:50:04.996Z,256
2022-11-01T11:51:04.950Z,256
2022-11-01T11:52:04.933Z,260
2022-11-01T11:53:04.896Z,292
2022-11-01T11:54:04.910Z,312
2022-11-01T11:55:05.056Z,340
2022-11-01T11:56:04.935Z,396
2022-11-01T11:57:04.908Z,468
2022-11-01T11:58:06.113Z,504
2022-11-01T11:59:13.479Z,512
2022-11-01T12:00:05.025Z,488
2022-11-01T12:01:08.676Z,484
2022-11-01T12:02:05.900Z,496
2022-11-01T12:03:07.363Z,520
2022-11-01T12:04:04.933Z,520
2022-11-01T12:05:07.914Z,508
2022-11-01T12:06:04.947Z,520
2022-11-01T12:07:04.958Z,628
2022-11-01T12:08:04.951Z,632
2022-11-01T12:09:09.950Z,556
2022-11-01T12:10:14.114Z,608
2022-11-01T12:11:05.425Z,556
2022-11-01T12:12:04.954Z,536
2022-11-01T12:13:06.236Z,392
2022-11-01T12:14:05.010Z,332
2022-11-01T12:15:05.027Z,280
2022-11-01T12:16:05.417Z,244
2022-11-01T12:17:05.017Z,216
2022-11-01T12:18:05.851Z,196
2022-11-01T12:19:04.951Z,196
2022-11-01T12:20:04.959Z,192
2022-11-01T12:21:18.202Z,180
2022-11-01T12:22:05.024Z,172
2022-11-01T12:23:13.790Z,164
2022-11-01T12:24:04.990Z,156
2022-11-01T12:25:04.965Z,156
2022-11-01T12:26:09.341Z,156
2022-11-01T12:27:04.989Z,156
2022-11-01T12:28:06.543Z,144
2022-11-01T12:29:04.963Z,144
2022-11-01T12:30:05.122Z,144
2022-11-01T12:31:07.878Z,152
2022-11-01T12:32:05.019Z,180
2022-11-01T12:33:05.365Z,212
2022-11-01T12:34:05.088Z,220
2022-11-01T12:35:05.005Z,216
2022-11-01T12:36:05.031Z,220
2022-11-01T12:37:07.313Z,236
2022-11-01T12:38:06.315Z,268
2022-11-01T12:39:05.003Z,300
2022-11-01T12:40:05.050Z,324
2022-11-01T12:41:10.081Z,328
2022-11-01T12:42:07.952Z,332
2022-11-01T12:43:05.580Z,364
2022-11-01T12:44:05.219Z,376
2022-11-01T12:45:05.054Z,372
2022-11-01T12:46:05.276Z,368
2022-11-01T12:47:05.255Z,344
2022-11-01T12:48:09.410Z,372
2022-11-01T12:49:05.031Z,348
2022-11-01T12:50:04.993Z,336
2022-11-01T12:51:05.002Z,340
2022-11-01T13:31:47.158Z,628
2022-11-01T13:32:56.715Z,796
2022-11-01T13:33:59.331Z,624
2022-11-01T13:34:56.716Z,712
2022-11-01T13:36:02.739Z,480
2022-11-01T13:36:56.843Z,584
2022-11-01T13:37:57.973Z,616
2022-11-01T13:38:56.727Z,580
2022-11-01T13:39:56.785Z,536
2022-11-01T13:40:57.085Z,504
2022-11-01T13:41:59.395Z,444
2022-11-01T13:42:56.653Z,424
2022-11-01T13:43:56.806Z,360
2022-11-01T13:44:56.626Z,252
2022-11-01T13:45:56.632Z,212
2022-11-01T13:47:00.003Z,192
2022-11-01T13:47:56.644Z,188
2022-11-01T13:48:56.640Z,192
2022-11-01T13:50:04.071Z,164
2022-11-01T13:50:56.645Z,168
2022-11-01T13:51:56.665Z,176
2022-11-01T13:53:02.525Z,164
2022-11-01T13:53:58.189Z,152
2022-11-01T13:54:56.844Z,152
2022-11-01T13:55:56.906Z,148
2022-11-01T13:56:59.793Z,144
2022-11-01T13:57:56.838Z,136
2022-11-01T13:58:56.700Z,132
2022-11-01T14:00:00.340Z,132
2022-11-01T14:01:00.259Z,132
2022-11-01T14:01:59.103Z,140
2022-11-01T14:02:56.774Z,144
2022-11-01T14:03:59.692Z,140
2022-11-01T14:04:56.667Z,140
2022-11-01T14:05:56.678Z,144
2022-11-01T14:07:02.521Z,152
2022-11-01T14:07:56.845Z,152
2022-11-01T14:09:08.899Z,156
2022-11-01T14:09:57.854Z,184
2022-11-01T14:10:59.907Z,232
2022-11-01T14:11:59.717Z,268
2022-11-01T14:12:58.784Z,280
2022-11-01T14:13:56.678Z,172
2022-11-01T14:14:59.477Z,168
2022-11-01T14:16:03.705Z,176
2022-11-01T14:16:56.678Z,180
2022-11-01T14:18:08.480Z,188
2022-11-01T14:18:57.133Z,204
2022-11-01T14:19:59.658Z,296
2022-11-01T14:20:59.717Z,344
2022-11-01T14:21:58.913Z,372
2022-11-01T14:22:57.549Z,264
2022-11-01T14:23:56.704Z,252
2022-11-01T14:25:02.170Z,264
2022-11-01T14:26:06.348Z,364
2022-11-01T14:26:56.741Z,348
2022-11-01T14:27:58.980Z,212
2022-11-01T14:28:56.714Z,184
2022-11-01T14:29:56.733Z,172
2022-11-01T14:30:59.973Z,164
2022-11-01T14:31:56.815Z,164
2022-11-01T14:32:57.183Z,160
2022-11-01T14:34:13.641Z,160
2022-11-01T14:35:03.238Z,164
2022-11-01T14:35:56.727Z,164
2022-11-01T14:36:56.929Z,168
2022-11-01T14:37:56.773Z,168
2022-11-01T14:38:56.786Z,168
2022-11-01T14:39:56.991Z,168
2022-11-01T14:40:56.578Z,164
2022-11-01T14:42:02.792Z,160
2022-11-01T14:42:56.813Z,156
2022-11-01T14:44:09.794Z,156
2022-11-01T14:44:58.304Z,152
2022-11-01T14:45:56.782Z,156
2022-11-01T14:46:56.810Z,148
2022-11-01T14:47:56.931Z,144
2022-11-01T14:48:56.832Z,148
2022-11-01T14:49:56.871Z,148
2022-11-01T14:50:59.764Z,148
2022-11-01T14:51:57.814Z,152
2022-11-01T14:52:56.803Z,144
2022-11-01T14:53:59.865Z,140
2022-11-01T14:54:56.792Z,136
2022-11-01T14:55:56.907Z,132
2022-11-01T14:56:56.922Z,128
2022-11-01T14:57:59.534Z,132
2022-11-01T14:59:01.796Z,124
2022-11-01T14:59:56.781Z,124
2022-11-01T15:00:57.302Z,120
2022-11-01T15:02:05.070Z,116
2022-11-01T15:02:57.413Z,116
2022-11-01T15:03:57.991Z,112
2022-11-01T15:04:59.923Z,112
2022-11-01T15:05:56.893Z,108
2022-11-01T15:06:56.785Z,104